Portada
METAR-TAF:

METAR-TAF

Aeroports :

Diego Garcia, Territori Britànic de l'Oceà Índic

latitud: 07-18S, longitud: 072-24E, altitud: 1 m

Observació

L'informe es va fer fa 5 minuts, a les 13:55 UTC
Vent 13 kt del Est/Sud-Est
Temperatura 29°C
Humitat 70%
Pressió 1011 hPa
Visibilitat 10 km o més
Escasses núvols a una alçada de 2500 ft
Núvols disperses a una alçada de 25000 ft

METAR: FJDG 231355Z 11013KT 9999 FEW025 SCT250 29/23 A2984 RMK SLP102 T02890232

Hora: 20:00 (14:00 UTC)

Pronòstic

L'informe es va fer fa 5 hores i 0 minuts, a les 09:00 UTC
Pronòstic vàlid del 23 a les 09 UTC al 24 a les 15 UTC
Vent 9 kt del Est
Visibilitat 10 km o més
Escasses núvols a una alçada de 2500 ft
Núvols disperses a una alçada de 8000 ft
Cel ennuvolat a una alçada de 25000 ft

TAF: FJDG 230900Z 2309/2415 09009KT 9999 FEW025 SCT080 BKN250 QNH2977INS TX34/2408Z TN26/2320Z

Observacions i pronòstics meteorològics de més de 4000 aeroports (METAR i TAF).

Les estacions disponibles són els punts grocs i vermells al mapa.

Posi el ratolí al punt desitjat per veure el nom de l'estació.

Feu clic per veure les observacions i els pronòstics meteorològics.

Per canviar el mapa: feu clic els botons verds amb una creu de color negre per apropar; al botó verd amb un guió per allunyar la imatge; o en les fletxes verdes per a mapes adjacents.


METAR-TAF: